sensor_id;sensor_type;location;lat;lon;timestamp;temperature;humidity
39519;DHT22;25200;53.394;10.414;2023-03-24T00:01:51;10.80;92.00
39519;DHT22;25200;53.394;10.414;2023-03-24T00:04:17;10.80;91.90
39519;DHT22;25200;53.394;10.414;2023-03-24T00:06:43;10.80;91.90
39519;DHT22;25200;53.394;10.414;2023-03-24T00:09:09;10.80;92.00
39519;DHT22;25200;53.394;10.414;2023-03-24T00:11:35;10.90;92.00
39519;DHT22;25200;53.394;10.414;2023-03-24T00:14:02;10.90;92.00
39519;DHT22;25200;53.394;10.414;2023-03-24T00:16:28;10.90;92.00
39519;DHT22;25200;53.394;10.414;2023-03-24T00:18:54;10.90;92.00
39519;DHT22;25200;53.394;10.414;2023-03-24T00:21:22;10.90;92.10
39519;DHT22;25200;53.394;10.414;2023-03-24T00:23:50;10.90;92.10
39519;DHT22;25200;53.394;10.414;2023-03-24T00:26:19;10.90;92.00
39519;DHT22;25200;53.394;10.414;2023-03-24T00:28:46;10.90;92.10
39519;DHT22;25200;53.394;10.414;2023-03-24T00:31:13;11.00;92.00
39519;DHT22;25200;53.394;10.414;2023-03-24T00:33:40;11.00;92.10
39519;DHT22;25200;53.394;10.414;2023-03-24T00:36:08;11.00;92.10
39519;DHT22;25200;53.394;10.414;2023-03-24T00:38:38;11.00;92.10
39519;DHT22;25200;53.394;10.414;2023-03-24T00:41:06;11.00;92.10
39519;DHT22;25200;53.394;10.414;2023-03-24T00:43:32;11.00;92.10
39519;DHT22;25200;53.394;10.414;2023-03-24T00:45:59;11.00;92.10
39519;DHT22;25200;53.394;10.414;2023-03-24T00:48:27;11.00;92.10
39519;DHT22;25200;53.394;10.414;2023-03-24T00:50:53;11.00;92.10
39519;DHT22;25200;53.394;10.414;2023-03-24T00:53:20;11.00;92.10
39519;DHT22;25200;53.394;10.414;2023-03-24T00:55:50;11.00;92.10
39519;DHT22;25200;53.394;10.414;2023-03-24T00:58:17;11.00;92.10
39519;DHT22;25200;53.394;10.414;2023-03-24T01:00:49;11.00;92.10
39519;DHT22;25200;53.394;10.414;2023-03-24T01:03:16;11.00;92.20
39519;DHT22;25200;53.394;10.414;2023-03-24T01:05:42;11.00;92.40
39519;DHT22;25200;53.394;10.414;2023-03-24T01:08:15;11.10;92.20
39519;DHT22;25200;53.394;10.414;2023-03-24T01:10:45;11.10;92.20
39519;DHT22;25200;53.394;10.414;2023-03-24T01:13:26;11.10;92.20
39519;DHT22;25200;53.394;10.414;2023-03-24T01:15:53;11.10;92.20
39519;DHT22;25200;53.394;10.414;2023-03-24T01:18:19;11.10;92.20
39519;DHT22;25200;53.394;10.414;2023-03-24T01:20:47;11.10;92.20
39519;DHT22;25200;53.394;10.414;2023-03-24T01:23:21;11.10;92.20
39519;DHT22;25200;53.394;10.414;2023-03-24T01:25:48;11.10;92.20
39519;DHT22;25200;53.394;10.414;2023-03-24T01:28:17;11.10;92.30
39519;DHT22;25200;53.394;10.414;2023-03-24T01:30:43;11.10;92.30
39519;DHT22;25200;53.394;10.414;2023-03-24T01:33:09;11.10;92.30
39519;DHT22;25200;53.394;10.414;2023-03-24T01:35:35;11.10;92.30
39519;DHT22;25200;53.394;10.414;2023-03-24T01:38:06;11.10;92.30
39519;DHT22;25200;53.394;10.414;2023-03-24T01:40:34;11.10;92.30
39519;DHT22;25200;53.394;10.414;2023-03-24T01:43:05;11.10;92.30
39519;DHT22;25200;53.394;10.414;2023-03-24T01:50:44;11.10;92.30
39519;DHT22;25200;53.394;10.414;2023-03-24T01:53:11;11.10;92.30
39519;DHT22;25200;53.394;10.414;2023-03-24T01:55:37;11.10;92.30
39519;DHT22;25200;53.394;10.414;2023-03-24T01:58:03;11.10;92.30
39519;DHT22;25200;53.394;10.414;2023-03-24T02:00:29;11.10;92.30
39519;DHT22;25200;53.394;10.414;2023-03-24T02:02:58;11.10;92.30
39519;DHT22;25200;53.394;10.414;2023-03-24T02:05:30;11.10;92.40
39519;DHT22;25200;53.394;10.414;2023-03-24T02:08:45;11.10;92.40
39519;DHT22;25200;53.394;10.414;2023-03-24T02:11:13;11.10;92.40
39519;DHT22;25200;53.394;10.414;2023-03-24T02:13:39;11.10;92.40
39519;DHT22;25200;53.394;10.414;2023-03-24T02:16:29;11.10;92.30
39519;DHT22;25200;53.394;10.414;2023-03-24T02:22:47;11.10;92.40
39519;DHT22;25200;53.394;10.414;2023-03-24T02:25:52;11.10;92.40
39519;DHT22;25200;53.394;10.414;2023-03-24T02:42:49;11.10;92.50
39519;DHT22;25200;53.394;10.414;2023-03-24T02:56:40;11.10;92.50
39519;DHT22;25200;53.394;10.414;2023-03-24T02:59:38;11.10;92.50
39519;DHT22;25200;53.394;10.414;2023-03-24T03:02:13;11.10;92.60
39519;DHT22;25200;53.394;10.414;2023-03-24T03:04:44;11.10;92.50
39519;DHT22;25200;53.394;10.414;2023-03-24T03:07:16;11.20;92.60
39519;DHT22;25200;53.394;10.414;2023-03-24T03:09:56;11.10;92.50
39519;DHT22;25200;53.394;10.414;2023-03-24T03:12:26;11.20;92.60
39519;DHT22;25200;53.394;10.414;2023-03-24T03:15:00;11.10;92.60
39519;DHT22;25200;53.394;10.414;2023-03-24T03:17:32;11.20;92.60
39519;DHT22;25200;53.394;10.414;2023-03-24T03:20:03;11.20;92.60
39519;DHT22;25200;53.394;10.414;2023-03-24T03:22:55;11.20;92.60
39519;DHT22;25200;53.394;10.414;2023-03-24T03:25:25;11.20;92.60
39519;DHT22;25200;53.394;10.414;2023-03-24T03:27:54;11.20;92.60
39519;DHT22;25200;53.394;10.414;2023-03-24T03:30:34;11.20;92.80
39519;DHT22;25200;53.394;10.414;2023-03-24T03:33:17;11.20;92.60
39519;DHT22;25200;53.394;10.414;2023-03-24T03:38:45;11.20;92.60
39519;DHT22;25200;53.394;10.414;2023-03-24T03:41:13;11.20;92.60
39519;DHT22;25200;53.394;10.414;2023-03-24T03:43:41;11.20;92.60
39519;DHT22;25200;53.394;10.414;2023-03-24T03:46:07;11.20;92.70
39519;DHT22;25200;53.394;10.414;2023-03-24T03:48:33;11.20;92.70
39519;DHT22;25200;53.394;10.414;2023-03-24T03:50:59;11.20;92.70
39519;DHT22;25200;53.394;10.414;2023-03-24T03:54:16;11.20;92.70
39519;DHT22;25200;53.394;10.414;2023-03-24T03:56:31;11.20;92.70
39519;DHT22;25200;53.394;10.414;2023-03-24T03:58:57;11.20;92.70
39519;DHT22;25200;53.394;10.414;2023-03-24T04:01:25;11.20;92.80
39519;DHT22;25200;53.394;10.414;2023-03-24T04:03:59;11.20;92.70
39519;DHT22;25200;53.394;10.414;2023-03-24T04:12:06;11.20;92.80
39519;DHT22;25200;53.394;10.414;2023-03-24T04:20:15;11.30;92.70
39519;DHT22;25200;53.394;10.414;2023-03-24T04:23:06;11.30;92.80
39519;DHT22;25200;53.394;10.414;2023-03-24T04:25:58;11.30;92.80
39519;DHT22;25200;53.394;10.414;2023-03-24T04:34:20;11.30;92.80
39519;DHT22;25200;53.394;10.414;2023-03-24T04:39:51;11.30;92.80
39519;DHT22;25200;53.394;10.414;2023-03-24T04:42:42;11.40;92.90
39519;DHT22;25200;53.394;10.414;2023-03-24T04:45:11;11.40;92.90
39519;DHT22;25200;53.394;10.414;2023-03-24T04:47:42;11.40;92.90
39519;DHT22;25200;53.394;10.414;2023-03-24T04:50:11;11.40;92.90
39519;DHT22;25200;53.394;10.414;2023-03-24T04:52:39;11.40;92.90
39519;DHT22;25200;53.394;10.414;2023-03-24T04:57:49;11.40;92.90
39519;DHT22;25200;53.394;10.414;2023-03-24T05:00:14;11.40;92.90
39519;DHT22;25200;53.394;10.414;2023-03-24T05:02:41;11.50;92.90
39519;DHT22;25200;53.394;10.414;2023-03-24T05:05:10;11.50;92.80
39519;DHT22;25200;53.394;10.414;2023-03-24T05:07:35;11.50;92.90
39519;DHT22;25200;53.394;10.414;2023-03-24T05:10:01;11.50;92.90
39519;DHT22;25200;53.394;10.414;2023-03-24T05:12:27;11.50;93.10
39519;DHT22;25200;53.394;10.414;2023-03-24T05:14:53;11.50;93.00
39519;DHT22;25200;53.394;10.414;2023-03-24T05:17:18;11.50;92.90
39519;DHT22;25200;53.394;10.414;2023-03-24T05:19:44;11.60;93.00
39519;DHT22;25200;53.394;10.414;2023-03-24T05:22:09;11.60;93.00
39519;DHT22;25200;53.394;10.414;2023-03-24T05:24:35;11.60;93.10
39519;DHT22;25200;53.394;10.414;2023-03-24T05:27:01;11.60;93.10
39519;DHT22;25200;53.394;10.414;2023-03-24T05:29:27;11.60;93.00
39519;DHT22;25200;53.394;10.414;2023-03-24T05:31:52;11.60;93.00
39519;DHT22;25200;53.394;10.414;2023-03-24T05:34:18;11.60;93.00
39519;DHT22;25200;53.394;10.414;2023-03-24T05:36:45;11.60;93.10
39519;DHT22;25200;53.394;10.414;2023-03-24T05:39:11;11.60;93.00
39519;DHT22;25200;53.394;10.414;2023-03-24T05:41:36;11.60;93.10
39519;DHT22;25200;53.394;10.414;2023-03-24T05:44:02;11.70;93.10
39519;DHT22;25200;53.394;10.414;2023-03-24T05:46:28;11.70;93.00
39519;DHT22;25200;53.394;10.414;2023-03-24T05:48:53;11.70;93.20
39519;DHT22;25200;53.394;10.414;2023-03-24T05:51:19;11.80;93.30
39519;DHT22;25200;53.394;10.414;2023-03-24T05:53:45;11.80;93.20
39519;DHT22;25200;53.394;10.414;2023-03-24T05:56:11;11.80;93.20
39519;DHT22;25200;53.394;10.414;2023-03-24T05:58:37;11.80;93.30
39519;DHT22;25200;53.394;10.414;2023-03-24T06:01:08;11.80;93.20
39519;DHT22;25200;53.394;10.414;2023-03-24T06:03:35;11.90;93.30
39519;DHT22;25200;53.394;10.414;2023-03-24T06:06:06;11.90;93.30
39519;DHT22;25200;53.394;10.414;2023-03-24T06:08:34;11.90;93.20
39519;DHT22;25200;53.394;10.414;2023-03-24T06:11:01;11.90;93.20
39519;DHT22;25200;53.394;10.414;2023-03-24T06:13:28;11.90;93.30
39519;DHT22;25200;53.394;10.414;2023-03-24T06:15:54;11.90;93.30
39519;DHT22;25200;53.394;10.414;2023-03-24T06:18:24;11.90;93.30
39519;DHT22;25200;53.394;10.414;2023-03-24T06:20:51;11.90;93.30
39519;DHT22;25200;53.394;10.414;2023-03-24T06:23:21;11.90;93.30
39519;DHT22;25200;53.394;10.414;2023-03-24T06:25:48;11.90;93.30
39519;DHT22;25200;53.394;10.414;2023-03-24T06:28:15;11.90;93.30
39519;DHT22;25200;53.394;10.414;2023-03-24T06:30:45;12.00;93.30
39519;DHT22;25200;53.394;10.414;2023-03-24T06:33:12;12.00;93.30
39519;DHT22;25200;53.394;10.414;2023-03-24T06:35:38;12.00;93.30
39519;DHT22;25200;53.394;10.414;2023-03-24T06:38:04;12.00;93.30
39519;DHT22;25200;53.394;10.414;2023-03-24T06:40:31;12.00;93.30
39519;DHT22;25200;53.394;10.414;2023-03-24T06:42:57;12.00;93.30
39519;DHT22;25200;53.394;10.414;2023-03-24T06:45:23;12.00;93.30
39519;DHT22;25200;53.394;10.414;2023-03-24T06:47:51;12.00;93.30
39519;DHT22;25200;53.394;10.414;2023-03-24T06:50:20;12.00;93.40
39519;DHT22;25200;53.394;10.414;2023-03-24T06:52:46;12.00;93.40
39519;DHT22;25200;53.394;10.414;2023-03-24T06:55:11;12.10;93.40
39519;DHT22;25200;53.394;10.414;2023-03-24T06:57:37;12.10;93.40
39519;DHT22;25200;53.394;10.414;2023-03-24T07:00:03;12.10;93.40
39519;DHT22;25200;53.394;10.414;2023-03-24T07:02:30;12.10;93.30
39519;DHT22;25200;53.394;10.414;2023-03-24T07:05:01;12.10;93.40
39519;DHT22;25200;53.394;10.414;2023-03-24T07:07:30;12.10;93.50
39519;DHT22;25200;53.394;10.414;2023-03-24T07:09:56;12.20;93.50
39519;DHT22;25200;53.394;10.414;2023-03-24T07:12:21;12.20;93.60
39519;DHT22;25200;53.394;10.414;2023-03-24T07:14:47;12.20;93.50
39519;DHT22;25200;53.394;10.414;2023-03-24T07:17:13;12.30;93.50
39519;DHT22;25200;53.394;10.414;2023-03-24T07:19:38;12.30;93.70
39519;DHT22;25200;53.394;10.414;2023-03-24T07:22:04;12.40;93.60
39519;DHT22;25200;53.394;10.414;2023-03-24T07:24:33;12.40;93.70
39519;DHT22;25200;53.394;10.414;2023-03-24T07:27:00;12.40;93.60
39519;DHT22;25200;53.394;10.414;2023-03-24T07:29:25;12.50;93.70
39519;DHT22;25200;53.394;10.414;2023-03-24T07:31:51;12.50;93.70
39519;DHT22;25200;53.394;10.414;2023-03-24T07:34:19;12.50;93.60
39519;DHT22;25200;53.394;10.414;2023-03-24T07:36:45;12.50;93.70
39519;DHT22;25200;53.394;10.414;2023-03-24T07:39:11;12.50;93.70
39519;DHT22;25200;53.394;10.414;2023-03-24T07:41:37;12.50;93.80
39519;DHT22;25200;53.394;10.414;2023-03-24T07:44:03;12.50;93.80
39519;DHT22;25200;53.394;10.414;2023-03-24T07:46:29;12.50;93.90
39519;DHT22;25200;53.394;10.414;2023-03-24T07:48:55;12.60;93.80
39519;DHT22;25200;53.394;10.414;2023-03-24T07:51:21;12.60;93.80
39519;DHT22;25200;53.394;10.414;2023-03-24T07:53:46;12.60;93.80
39519;DHT22;25200;53.394;10.414;2023-03-24T07:56:13;12.60;93.80
39519;DHT22;25200;53.394;10.414;2023-03-24T07:58:39;12.60;93.80
39519;DHT22;25200;53.394;10.414;2023-03-24T08:01:09;12.60;93.80
39519;DHT22;25200;53.394;10.414;2023-03-24T08:03:35;12.60;93.90
39519;DHT22;25200;53.394;10.414;2023-03-24T08:06:06;12.60;93.80
39519;DHT22;25200;53.394;10.414;2023-03-24T08:08:32;12.60;93.70
39519;DHT22;25200;53.394;10.414;2023-03-24T08:10:58;12.60;93.60
39519;DHT22;25200;53.394;10.414;2023-03-24T08:13:24;12.60;93.40
39519;DHT22;25200;53.394;10.414;2023-03-24T08:15:50;12.60;93.40
39519;DHT22;25200;53.394;10.414;2023-03-24T08:18:18;12.60;93.30
39519;DHT22;25200;53.394;10.414;2023-03-24T08:20:46;12.60;93.30
39519;DHT22;25200;53.394;10.414;2023-03-24T08:23:12;12.60;93.30
39519;DHT22;25200;53.394;10.414;2023-03-24T08:25:37;12.60;93.10
39519;DHT22;25200;53.394;10.414;2023-03-24T08:28:03;12.60;93.10
39519;DHT22;25200;53.394;10.414;2023-03-24T08:30:29;12.60;93.00
39519;DHT22;25200;53.394;10.414;2023-03-24T08:32:57;12.60;93.00
39519;DHT22;25200;53.394;10.414;2023-03-24T08:35:29;12.60;93.10
39519;DHT22;25200;53.394;10.414;2023-03-24T08:37:59;12.70;93.20
39519;DHT22;25200;53.394;10.414;2023-03-24T08:40:26;12.70;93.10
39519;DHT22;25200;53.394;10.414;2023-03-24T08:42:58;12.70;93.00
39519;DHT22;25200;53.394;10.414;2023-03-24T08:45:25;12.80;93.00
39519;DHT22;25200;53.394;10.414;2023-03-24T08:47:52;12.80;92.90
39519;DHT22;25200;53.394;10.414;2023-03-24T08:50:20;12.70;92.80
39519;DHT22;25200;53.394;10.414;2023-03-24T08:52:47;12.70;92.80
39519;DHT22;25200;53.394;10.414;2023-03-24T08:55:17;12.70;92.70
39519;DHT22;25200;53.394;10.414;2023-03-24T08:57:43;12.80;92.70
39519;DHT22;25200;53.394;10.414;2023-03-24T09:00:13;12.80;92.80
39519;DHT22;25200;53.394;10.414;2023-03-24T09:02:52;12.90;92.80
39519;DHT22;25200;53.394;10.414;2023-03-24T09:05:19;13.00;92.60
39519;DHT22;25200;53.394;10.414;2023-03-24T09:07:46;13.00;92.50
39519;DHT22;25200;53.394;10.414;2023-03-24T09:10:13;13.10;92.40
39519;DHT22;25200;53.394;10.414;2023-03-24T09:12:40;13.20;92.40
39519;DHT22;25200;53.394;10.414;2023-03-24T09:15:07;13.30;92.40
39519;DHT22;25200;53.394;10.414;2023-03-24T09:17:34;13.40;92.40
39519;DHT22;25200;53.394;10.414;2023-03-24T09:20:00;13.50;92.40
39519;DHT22;25200;53.394;10.414;2023-03-24T09:22:25;13.60;92.20
39519;DHT22;25200;53.394;10.414;2023-03-24T09:24:51;13.70;92.20
39519;DHT22;25200;53.394;10.414;2023-03-24T09:27:17;13.70;92.10
39519;DHT22;25200;53.394;10.414;2023-03-24T09:29:43;13.90;92.30
39519;DHT22;25200;53.394;10.414;2023-03-24T09:32:09;13.80;91.80
39519;DHT22;25200;53.394;10.414;2023-03-24T09:34:36;13.80;91.60
39519;DHT22;25200;53.394;10.414;2023-03-24T09:37:03;13.80;91.70
39519;DHT22;25200;53.394;10.414;2023-03-24T09:39:29;13.70;91.70
39519;DHT22;25200;53.394;10.414;2023-03-24T09:41:55;13.70;91.50
39519;DHT22;25200;53.394;10.414;2023-03-24T09:44:29;13.70;91.80
39519;DHT22;25200;53.394;10.414;2023-03-24T09:47:05;13.70;91.60
39519;DHT22;25200;53.394;10.414;2023-03-24T09:49:37;13.70;91.80
39519;DHT22;25200;53.394;10.414;2023-03-24T09:52:09;13.80;91.60
39519;DHT22;25200;53.394;10.414;2023-03-24T09:54:58;13.80;91.50
39519;DHT22;25200;53.394;10.414;2023-03-24T09:57:32;13.80;91.20
39519;DHT22;25200;53.394;10.414;2023-03-24T10:00:07;13.80;91.20
39519;DHT22;25200;53.394;10.414;2023-03-24T10:02:33;13.70;91.30
39519;DHT22;25200;53.394;10.414;2023-03-24T10:04:58;13.80;91.50
39519;DHT22;25200;53.394;10.414;2023-03-24T10:07:39;13.80;91.40
39519;DHT22;25200;53.394;10.414;2023-03-24T10:10:21;13.90;91.30
39519;DHT22;25200;53.394;10.414;2023-03-24T10:12:54;13.80;90.90
39519;DHT22;25200;53.394;10.414;2023-03-24T10:15:31;13.80;90.70
39519;DHT22;25200;53.394;10.414;2023-03-24T10:23:41;13.60;91.00
39519;DHT22;25200;53.394;10.414;2023-03-24T10:29:20;13.70;91.00
39519;DHT22;25200;53.394;10.414;2023-03-24T10:32:31;13.80;91.10
39519;DHT22;25200;53.394;10.414;2023-03-24T10:34:37;14.00;91.10
39519;DHT22;25200;53.394;10.414;2023-03-24T10:37:04;14.10;90.90
39519;DHT22;25200;53.394;10.414;2023-03-24T10:39:30;14.20;90.90
39519;DHT22;25200;53.394;10.414;2023-03-24T10:41:57;14.20;90.70
39519;DHT22;25200;53.394;10.414;2023-03-24T10:44:24;14.30;90.80
39519;DHT22;25200;53.394;10.414;2023-03-24T10:46:53;14.40;91.10
39519;DHT22;25200;53.394;10.414;2023-03-24T10:49:21;14.70;90.80
39519;DHT22;25200;53.394;10.414;2023-03-24T10:52:00;14.80;90.50
39519;DHT22;25200;53.394;10.414;2023-03-24T10:54:29;14.90;90.30
39519;DHT22;25200;53.394;10.414;2023-03-24T11:02:18;15.10;90.20
39519;DHT22;25200;53.394;10.414;2023-03-24T11:04:58;15.20;90.20
39519;DHT22;25200;53.394;10.414;2023-03-24T11:07:34;15.20;90.20
39519;DHT22;25200;53.394;10.414;2023-03-24T11:10:12;15.20;90.00
39519;DHT22;25200;53.394;10.414;2023-03-24T11:12:58;15.20;89.50
39519;DHT22;25200;53.394;10.414;2023-03-24T11:18:18;15.10;89.80
39519;DHT22;25200;53.394;10.414;2023-03-24T11:20:56;15.10;90.10
39519;DHT22;25200;53.394;10.414;2023-03-24T11:23:41;15.10;90.10
39519;DHT22;25200;53.394;10.414;2023-03-24T11:26:14;15.20;90.10
39519;DHT22;25200;53.394;10.414;2023-03-24T11:28:53;15.40;90.30
39519;DHT22;25200;53.394;10.414;2023-03-24T11:31:29;15.50;90.00
39519;DHT22;25200;53.394;10.414;2023-03-24T11:33:58;15.60;89.00
39519;DHT22;25200;53.394;10.414;2023-03-24T11:42:11;15.60;88.60
39519;DHT22;25200;53.394;10.414;2023-03-24T11:47:05;15.50;88.30
39519;DHT22;25200;53.394;10.414;2023-03-24T11:49:38;15.50;88.60
39519;DHT22;25200;53.394;10.414;2023-03-24T11:52:18;15.40;89.20
39519;DHT22;25200;53.394;10.414;2023-03-24T11:54:45;15.30;88.90
39519;DHT22;25200;53.394;10.414;2023-03-24T11:57:13;15.20;88.90
39519;DHT22;25200;53.394;10.414;2023-03-24T11:59:53;15.20;88.70
39519;DHT22;25200;53.394;10.414;2023-03-24T12:05:41;15.00;89.00
39519;DHT22;25200;53.394;10.414;2023-03-24T12:13:52;15.00;90.00
39519;DHT22;25200;53.394;10.414;2023-03-24T12:27:01;15.60;89.60
39519;DHT22;25200;53.394;10.414;2023-03-24T12:29:48;15.60;89.60
39519;DHT22;25200;53.394;10.414;2023-03-24T12:37:49;15.70;90.00
39519;DHT22;25200;53.394;10.414;2023-03-24T12:40:57;15.90;88.70
39519;DHT22;25200;53.394;10.414;2023-03-24T12:46:41;16.40;89.00
39519;DHT22;25200;53.394;10.414;2023-03-24T12:49:15;16.60;88.10
39519;DHT22;25200;53.394;10.414;2023-03-24T12:57:01;16.90;87.50
39519;DHT22;25200;53.394;10.414;2023-03-24T12:59:32;16.90;88.20
39519;DHT22;25200;53.394;10.414;2023-03-24T13:04:52;16.80;86.00
39519;DHT22;25200;53.394;10.414;2023-03-24T13:07:22;16.60;85.40
39519;DHT22;25200;53.394;10.414;2023-03-24T13:09:58;16.40;85.90
39519;DHT22;25200;53.394;10.414;2023-03-24T13:15:32;16.50;87.60
39519;DHT22;25200;53.394;10.414;2023-03-24T13:28:22;17.30;86.50
39519;DHT22;25200;53.394;10.414;2023-03-24T13:30:50;17.40;86.50
39519;DHT22;25200;53.394;10.414;2023-03-24T13:33:20;17.50;86.60
39519;DHT22;25200;53.394;10.414;2023-03-24T13:38:47;17.60;85.80
39519;DHT22;25200;53.394;10.414;2023-03-24T13:41:18;17.80;86.00
39519;DHT22;25200;53.394;10.414;2023-03-24T13:43:51;17.80;86.10
39519;DHT22;25200;53.394;10.414;2023-03-24T13:46:22;17.80;84.90
39519;DHT22;25200;53.394;10.414;2023-03-24T13:48:56;17.80;84.60
39519;DHT22;25200;53.394;10.414;2023-03-24T13:51:29;17.80;83.70
39519;DHT22;25200;53.394;10.414;2023-03-24T13:53:57;17.70;83.80
39519;DHT22;25200;53.394;10.414;2023-03-24T13:56:52;17.50;83.90
39519;DHT22;25200;53.394;10.414;2023-03-24T14:15:19;17.70;83.70
39519;DHT22;25200;53.394;10.414;2023-03-24T14:17:48;17.80;83.50
39519;DHT22;25200;53.394;10.414;2023-03-24T14:23:42;17.90;84.40
39519;DHT22;25200;53.394;10.414;2023-03-24T14:26:13;18.00;83.30
39519;DHT22;25200;53.394;10.414;2023-03-24T14:28:41;18.00;83.90
39519;DHT22;25200;53.394;10.414;2023-03-24T14:36:09;17.70;83.70
39519;DHT22;25200;53.394;10.414;2023-03-24T14:38:43;17.50;83.50
39519;DHT22;25200;53.394;10.414;2023-03-24T14:41:16;17.30;82.60
39519;DHT22;25200;53.394;10.414;2023-03-24T14:43:58;17.20;83.50
39519;DHT22;25200;53.394;10.414;2023-03-24T14:46:44;17.00;83.20
39519;DHT22;25200;53.394;10.414;2023-03-24T14:52:11;17.00;84.80
39519;DHT22;25200;53.394;10.414;2023-03-24T14:54:51;17.10;85.00
39519;DHT22;25200;53.394;10.414;2023-03-24T14:57:38;17.10;84.80
39519;DHT22;25200;53.394;10.414;2023-03-24T15:00:20;17.20;85.10
39519;DHT22;25200;53.394;10.414;2023-03-24T15:05:44;17.30;83.70
39519;DHT22;25200;53.394;10.414;2023-03-24T15:08:18;17.30;83.40
39519;DHT22;25200;53.394;10.414;2023-03-24T15:10:57;17.30;84.30
39519;DHT22;25200;53.394;10.414;2023-03-24T15:13:39;17.30;83.40
39519;DHT22;25200;53.394;10.414;2023-03-24T15:16:26;17.20;82.80
39519;DHT22;25200;53.394;10.414;2023-03-24T15:18:56;17.10;83.10
39519;DHT22;25200;53.394;10.414;2023-03-24T15:21:40;17.00;83.80
39519;DHT22;25200;53.394;10.414;2023-03-24T15:29:35;16.70;83.70
39519;DHT22;25200;53.394;10.414;2023-03-24T15:32:01;16.60;84.50
39519;DHT22;25200;53.394;10.414;2023-03-24T15:36:55;16.50;84.20
39519;DHT22;25200;53.394;10.414;2023-03-24T15:39:27;16.40;84.10
39519;DHT22;25200;53.394;10.414;2023-03-24T15:41:54;16.30;84.10
39519;DHT22;25200;53.394;10.414;2023-03-24T15:44:29;16.20;83.90
39519;DHT22;25200;53.394;10.414;2023-03-24T15:46:58;16.20;84.20
39519;DHT22;25200;53.394;10.414;2023-03-24T15:49:25;16.10;84.60
39519;DHT22;25200;53.394;10.414;2023-03-24T16:00:04;16.10;84.50
39519;DHT22;25200;53.394;10.414;2023-03-24T16:02:48;16.00;83.50
39519;DHT22;25200;53.394;10.414;2023-03-24T16:05:30;15.90;84.00
39519;DHT22;25200;53.394;10.414;2023-03-24T16:08:06;15.80;84.30
39519;DHT22;25200;53.394;10.414;2023-03-24T16:13:14;15.80;83.70
39519;DHT22;25200;53.394;10.414;2023-03-24T16:15:45;15.80;83.80
39519;DHT22;25200;53.394;10.414;2023-03-24T16:18:17;15.70;84.20
39519;DHT22;25200;53.394;10.414;2023-03-24T16:20:44;15.70;83.90
39519;DHT22;25200;53.394;10.414;2023-03-24T16:23:11;15.70;83.20
39519;DHT22;25200;53.394;10.414;2023-03-24T16:25:37;15.60;83.80
39519;DHT22;25200;53.394;10.414;2023-03-24T16:28:03;15.60;83.70
39519;DHT22;25200;53.394;10.414;2023-03-24T16:30:35;15.50;83.30
39519;DHT22;25200;53.394;10.414;2023-03-24T16:33:03;15.50;83.30
39519;DHT22;25200;53.394;10.414;2023-03-24T16:35:29;15.50;82.10
39519;DHT22;25200;53.394;10.414;2023-03-24T16:37:54;15.40;83.10
39519;DHT22;25200;53.394;10.414;2023-03-24T16:40:29;15.30;83.40
39519;DHT22;25200;53.394;10.414;2023-03-24T16:42:57;15.30;83.40
39519;DHT22;25200;53.394;10.414;2023-03-24T16:45:23;15.30;83.60
39519;DHT22;25200;53.394;10.414;2023-03-24T16:47:49;15.30;83.80
39519;DHT22;25200;53.394;10.414;2023-03-24T16:50:34;15.20;83.20
39519;DHT22;25200;53.394;10.414;2023-03-24T16:53:00;15.20;83.50
39519;DHT22;25200;53.394;10.414;2023-03-24T16:55:28;15.20;83.40
39519;DHT22;25200;53.394;10.414;2023-03-24T16:57:54;15.10;83.80
39519;DHT22;25200;53.394;10.414;2023-03-24T17:00:19;15.10;83.50
39519;DHT22;25200;53.394;10.414;2023-03-24T17:02:47;15.10;83.60
39519;DHT22;25200;53.394;10.414;2023-03-24T17:05:22;15.00;83.70
39519;DHT22;25200;53.394;10.414;2023-03-24T17:07:49;14.90;83.30
39519;DHT22;25200;53.394;10.414;2023-03-24T17:10:15;14.80;83.80
39519;DHT22;25200;53.394;10.414;2023-03-24T17:12:40;14.70;83.90
39519;DHT22;25200;53.394;10.414;2023-03-24T17:15:08;14.70;83.50
39519;DHT22;25200;53.394;10.414;2023-03-24T17:17:38;14.60;83.30
39519;DHT22;25200;53.394;10.414;2023-03-24T17:20:04;14.60;83.60
39519;DHT22;25200;53.394;10.414;2023-03-24T17:22:30;14.50;83.70
39519;DHT22;25200;53.394;10.414;2023-03-24T17:24:56;14.50;83.50
39519;DHT22;25200;53.394;10.414;2023-03-24T17:27:23;14.40;84.10
39519;DHT22;25200;53.394;10.414;2023-03-24T17:29:49;14.30;83.80
39519;DHT22;25200;53.394;10.414;2023-03-24T17:32:15;14.30;83.70
39519;DHT22;25200;53.394;10.414;2023-03-24T17:34:44;14.30;84.10
39519;DHT22;25200;53.394;10.414;2023-03-24T17:37:10;14.20;83.90
39519;DHT22;25200;53.394;10.414;2023-03-24T17:39:36;14.20;84.00
39519;DHT22;25200;53.394;10.414;2023-03-24T17:42:02;14.10;84.10
39519;DHT22;25200;53.394;10.414;2023-03-24T17:44:28;14.10;84.30
39519;DHT22;25200;53.394;10.414;2023-03-24T17:46:54;14.00;83.90
39519;DHT22;25200;53.394;10.414;2023-03-24T17:49:19;13.90;84.20
39519;DHT22;25200;53.394;10.414;2023-03-24T17:51:46;13.90;84.20
39519;DHT22;25200;53.394;10.414;2023-03-24T17:54:11;13.90;84.50
39519;DHT22;25200;53.394;10.414;2023-03-24T17:56:38;13.80;84.70
39519;DHT22;25200;53.394;10.414;2023-03-24T17:59:04;13.70;84.10
39519;DHT22;25200;53.394;10.414;2023-03-24T18:01:30;13.70;84.50
39519;DHT22;25200;53.394;10.414;2023-03-24T18:03:59;13.60;84.40
39519;DHT22;25200;53.394;10.414;2023-03-24T18:06:25;13.60;84.40
39519;DHT22;25200;53.394;10.414;2023-03-24T18:08:52;13.60;84.40
39519;DHT22;25200;53.394;10.414;2023-03-24T18:11:18;13.50;84.60
39519;DHT22;25200;53.394;10.414;2023-03-24T18:13:44;13.40;84.20
39519;DHT22;25200;53.394;10.414;2023-03-24T18:16:14;13.40;84.60
39519;DHT22;25200;53.394;10.414;2023-03-24T18:18:42;13.40;84.80
39519;DHT22;25200;53.394;10.414;2023-03-24T18:21:10;13.40;84.80
39519;DHT22;25200;53.394;10.414;2023-03-24T18:23:36;13.30;84.90
39519;DHT22;25200;53.394;10.414;2023-03-24T18:26:05;13.20;85.00
39519;DHT22;25200;53.394;10.414;2023-03-24T18:28:33;13.20;85.00
39519;DHT22;25200;53.394;10.414;2023-03-24T18:31:01;13.10;85.00
39519;DHT22;25200;53.394;10.414;2023-03-24T18:33:27;13.10;85.20
39519;DHT22;25200;53.394;10.414;2023-03-24T18:35:56;13.10;85.30
39519;DHT22;25200;53.394;10.414;2023-03-24T18:38:23;13.00;85.40
39519;DHT22;25200;53.394;10.414;2023-03-24T18:41:00;12.90;85.30